METAR stanice u blizini

 

LYBE - Beograd / Surčin, Srbija
Ažurirano: 15/06/2024 22:30
Vedro
Vedro
 Pravac vetra IJI
Vetar: IJI 6 km/h
Temperatura: 21°C
Tačka rose: 13°C
Vlažnost: 60%
Pritisak: 1011 hPa
Pregled: Vedro
Vidljivost: greater than 10 km
2024/06/15 20:30 LYBE 152030Z 11003KT CAVOK 21/13 Q1011 NOSIG
LYBT - Beograd / Batajnica, Srbija
Ažurirano: 15/06/2024 22:30
Vedro
Vedro
 Pravac vetra varies
Vetar: varies 4 km/h
Temperatura: 18°C
Tačka rose: 15°C
Vlažnost: 83%
Pritisak: 1011 hPa
Pregled: Vedro
Vidljivost: greater than 10 km
2024/06/15 20:30 LYBT 152030Z VRB02KT CAVOK 18/15 Q1011 NOSIG
LYVR - Vršac, Srbija
Ažurirano: 15/06/2024 22:30
Vedro
Vedro
 Pravac vetra varies
Vetar: varies 2 km/h
Temperatura: 17°C
Tačka rose: 11°C
Vlažnost: 68%
Pritisak: 1011 hPa
Pregled: Vedro
Vidljivost: greater than 10 km
2024/06/15 20:30 LYVR 152030Z AUTO VRB01KT CAVOK 17/11 Q1011
 
LYKV - Lađevci, Srbija
Ažurirano: 15/06/2024 22:30
Vedro
Vedro
 Pravac vetra calm
Vetar: Tišina
Temperatura: 17°C
Tačka rose: 12°C
Vlažnost: 73%
Pritisak: 1011 hPa
Pregled: Vedro
Vidljivost: greater than 10 km
2024/06/15 20:30 LYKV 152030Z 00000KT CAVOK 17/12 Q1011 NOSIG
LYNI - Niš, Srbija
Ažurirano: 15/06/2024 22:30
Vedro
Vedro
 Pravac vetra I
Vetar: I 9 km/h
Temperatura: 19°C
Tačka rose: 13°C
Vlažnost: 68%
Pritisak: 1012 hPa
Pregled: Vedro
Vidljivost: greater than 10 km
2024/06/15 20:30 LYNI 152030Z 09005KT CAVOK 19/13 Q1012 NOSIG
BKPR - Priština, Srbija
Ažurirano: 15/06/2024 22:30
Vedro
Vedro
 Pravac vetra SZ
Vetar: SZ 11 km/h
Temperatura: 20°C
Tačka rose: 14°C
Vlažnost: 69%
Pritisak: 1013 hPa
Pregled: Vedro
Vidljivost: greater than 10 km
2024/06/15 20:30 BKPR 152030Z 32006KT CAVOK 20/14 Q1013 NOSIG
 
LHPP - Pecs / Pogany, Hungary
Ažurirano: 15/06/2024 22:15
Vedro
Vedro
 Pravac vetra JI
Vetar: JI 6 km/h
Temperatura: 20°C
Tačka rose: 14°C
Vlažnost: 69%
Pritisak: 1011 hPa
Pregled: Vedro
Vidljivost: greater than 10 km
2024/06/15 20:15 LHPP 152015Z AUTO 14003KT CAVOK 20/14 Q1011
LHUD - Szeged, Hungary
Ažurirano: 04/07/2019 01:45
NOT Current
Vedro
Vedro
 Pravac vetra S
Vetar: S 7 km/h
Temperatura: 18°C
Tačka rose: 13°C
Vlažnost: 73%
Pritisak: 1019 hPa
Pregled: Vedro
Vidljivost: greater than 10 km
2019/07/03 23:45 LHUD 032345Z 35004KT CAVOK 18/13 Q1019
LRTR - Timisoara, Romania
Ažurirano: 15/06/2024 22:30
Vedro
Vedro
 Pravac vetra ISI
Vetar: ISI 6 km/h
Temperatura: 16°C
Tačka rose: 14°C
Vlažnost: 88%
Pritisak: 1011 hPa
Pregled: Vedro
Vidljivost: greater than 10 km
2024/06/15 20:30 LRTR 152030Z 07003KT CAVOK 16/14 Q1011
 
LRCV - Craiova, Romania
Ažurirano: 15/06/2024 22:30
Vedro
Vedro
 Pravac vetra JZ
Vetar: JZ 4 km/h
Temperatura: 21°C
Tačka rose: 10°C
Vlažnost: 50%
Pritisak: 1011 hPa
Pregled: Vedro
Vidljivost: greater than 10 km
2024/06/15 20:30 LRCV 152030Z 23002KT CAVOK 21/10 Q1011
LBSF - Sofia, Bulgaria
Ažurirano: 15/06/2024 22:30
Vedro
Vedro
 Pravac vetra varies
Vetar: varies 4 km/h
Temperatura: 18°C
Tačka rose: 12°C
Vlažnost: 68%
Pritisak: 1014 hPa
Oblaci: Vedro
Vidljivost: 10 km
2024/06/15 20:30 LBSF 152030Z AUTO VRB02KT 9999 NCD 18/12 Q1014 NOSIG
LWSK - Skoplje, Makedonija
Ažurirano: 15/06/2024 22:50
Vedro
Vedro
 Pravac vetra J
Vetar: J 6 km/h
Temperatura: 20°C
Tačka rose: 15°C
Vlažnost: 73%
Pritisak: 1012 hPa
Pregled: Vedro
Vidljivost: greater than 10 km
2024/06/15 20:50 LWSK 152050Z 18003KT 130V220 CAVOK 20/15 Q1012 NOSIG
 
LYPG - Podgorica, Crna Gora
Ažurirano: 15/06/2024 22:30
Vedro
Vedro
 Pravac vetra varies
Vetar: varies 2 km/h
Temperatura: 22°C
Tačka rose: 17°C
Vlažnost: 73%
Pritisak: 1012 hPa
Pregled: Vedro
Vidljivost: greater than 10 km
2024/06/15 20:30 LYPG 152030Z VRB01KT CAVOK 22/17 Q1012 NOSIG
LQSA - Sarajevo, Bosna i Hercegovina
Ažurirano: 15/06/2024 22:30
Vedro
Vedro
 Pravac vetra varies
Vetar: varies 4 km/h
Temperatura: 20°C
Tačka rose: 14°C
Vlažnost: 69%
Pritisak: 1013 hPa
Pregled: Vedro
Vidljivost: greater than 10 km
2024/06/15 20:30 LQSA 152030Z VRB02KT CAVOK 20/14 Q1013 NOSIG
LDOS - Osijek, Hrvatksa
Ažurirano: 15/06/2024 22:30
Vedro
Vedro
 Pravac vetra I
Vetar: I 9 km/h
Temperatura: 18°C
Tačka rose: 17°C
Vlažnost: 94%
Pritisak: 1010 hPa
Pregled: Vedro
Vidljivost: greater than 10 km
2024/06/15 20:30 LDOS 152030Z 10005KT CAVOK 18/17 Q1010